Terminal Aerodrome Forecast
Issued by NWS Sioux Falls, SD

Home | Current Version | Previous Version | Graphics & Text | Print | Product List | Glossary On
Versions: 1 2 3 4 5 6 7 8 9 10 11 12 13
000
FTUS43 KFSD 150533
TAFSUX
TAF
KSUX 150533Z 1506/1606 VRB03KT P6SM BKN200
      TEMPO 1508/1511 3SM BR
     FM151100 34005KT P6SM OVC150
     FM151600 34009KT P6SM BKN100
     FM151900 34013G19KT P6SM BKN120
     FM152200 34017G25KT P6SM OVC020
     FM160300 33017G27KT P6SM BKN040
     FM160400 33015G24KT P6SM SCT080=

USA.gov is the U.S. government's official web portal to all federal, state and local government web resources and services.